Time;durP1;ratioP1;P1;durP2;ratioP2;P2;SDS_P1;SDS_P2;PMS_P1;PMS_P2;Temp;Humidity;BMP_temperature;BMP_pressure;BME280_temperature;BME280_humidity;BME280_pressure;Samples;Min_cycle;Max_cycle;Signal;HPM_P1;HPM_P2
2022/04/12 04:54:15;;;;;;;4.77;3.73;;;2.40;99.90;;;;;;5048967;28;20213;-74
2022/04/12 04:56:40;;;;;;;7.53;4.37;;;2.30;99.90;;;;;;5017511;28;20179;-74
2022/04/12 04:59:06;;;;;;;5.03;4.10;;;2.30;99.90;;;;;;5033968;28;20178;-76
2022/04/12 05:01:32;;;;;;;5.23;3.73;;;2.30;99.90;;;;;;5017689;28;20731;-76
2022/04/12 05:03:57;;;;;;;4.90;3.90;;;2.30;99.90;;;;;;5000761;28;20184;-77
2022/04/12 05:06:23;;;;;;;4.80;3.73;;;2.40;99.90;;;;;;5020431;28;20191;-77
2022/04/12 05:08:49;;;;;;;5.87;4.30;;;2.40;99.90;;;;;;5037462;28;20328;-77
2022/04/12 05:11:14;;;;;;;4.53;3.87;;;2.40;99.90;;;;;;5021219;28;20194;-76
2022/04/12 05:13:40;;;;;;;4.73;4.00;;;2.40;99.90;;;;;;5021007;28;20186;-77
2022/04/12 05:16:05;;;;;;;5.03;4.00;;;2.40;99.90;;;;;;5037320;28;20183;-77
2022/04/12 05:18:31;;;;;;;4.70;3.77;;;2.50;99.90;;;;;;5020904;28;20229;-77
2022/04/12 05:20:56;;;;;;;6.57;4.10;;;2.70;99.90;;;;;;5020641;28;20568;-77
2022/04/12 05:23:22;;;;;;;5.53;3.70;;;2.90;99.90;;;;;;5020887;28;20180;-77
2022/04/12 05:25:48;;;;;;;4.33;3.87;;;3.10;99.90;;;;;;5037246;28;20222;-77
2022/04/12 05:28:14;;;;;;;4.67;3.93;;;3.00;99.90;;;;;;5004277;28;20180;-77
2022/04/12 05:30:40;;;;;;;4.20;3.80;;;3.00;99.90;;;;;;5004258;28;20200;-77
2022/04/12 05:33:05;;;;;;;6.47;3.70;;;3.10;99.90;;;;;;5036793;28;20198;-77
2022/04/12 05:35:31;;;;;;;3.40;2.90;;;3.20;99.90;;;;;;5037484;28;20245;-76
2022/04/12 05:37:58;;;;;;;3.90;3.10;;;3.30;99.90;;;;;;5004396;28;20642;-77
2022/04/12 05:40:24;;;;;;;4.00;3.20;;;4.00;99.90;;;;;;5037002;28;20200;-78
2022/04/12 05:42:51;;;;;;;4.53;3.00;;;4.70;99.90;;;;;;5003881;28;20188;-77
2022/04/12 05:45:17;;;;;;;4.43;3.80;;;5.30;99.90;;;;;;5020497;28;20574;-77
2022/04/12 05:47:53;;;;;;;3.67;3.30;;;5.70;99.90;;;;;;5037079;28;20181;-77
2022/04/12 05:50:24;;;;;;;3.80;3.30;;;5.90;99.90;;;;;;5055840;28;20189;-77
2022/04/12 05:52:50;;;;;;;5.63;3.80;;;5.60;99.90;;;;;;5037085;28;20200;-77
2022/04/12 05:55:17;;;;;;;4.60;3.73;;;5.30;99.90;;;;;;5036695;28;20181;-78
2022/04/12 05:57:56;;;;;;;6.67;4.40;;;5.00;99.90;;;;;;5020037;28;20182;-77
2022/04/12 06:00:23;;;;;;;15.17;9.83;;;4.80;99.90;;;;;;5036638;28;20280;-78
2022/04/12 06:02:50;;;;;;;6.33;4.53;;;4.60;99.90;;;;;;5020192;28;20185;-76
2022/04/12 06:05:16;;;;;;;5.63;4.23;;;4.50;99.90;;;;;;5004042;28;20219;-78
2022/04/12 06:07:42;;;;;;;5.40;4.10;;;4.40;99.90;;;;;;5036332;28;20539;-77
2022/04/12 06:10:10;;;;;;;5.07;4.30;;;4.40;99.90;;;;;;5019841;28;20679;-77
2022/04/12 06:12:36;;;;;;;7.77;4.67;;;4.40;99.90;;;;;;5036237;28;20226;-77
2022/04/12 06:15:02;;;;;;;7.50;5.23;;;4.40;99.90;;;;;;5019899;28;20182;-77
2022/04/12 06:17:32;;;;;;;8.73;5.37;;;4.50;99.90;;;;;;5003080;28;20648;-77
2022/04/12 06:20:09;;;;;;;8.10;5.00;;;4.50;99.90;;;;;;5036055;28;20170;-77
2022/04/12 06:22:35;;;;;;;7.03;4.57;;;4.50;99.90;;;;;;5053757;28;20252;-77
2022/04/12 06:25:01;;;;;;;15.40;5.30;;;4.60;99.90;;;;;;5036030;28;20205;-77
2022/04/12 06:27:37;;;;;;;8.13;4.97;;;4.60;99.90;;;;;;5019950;28;20260;-77
2022/04/12 06:30:09;;;;;;;7.47;5.17;;;4.70;99.90;;;;;;5019426;28;20203;-77
2022/04/12 06:32:35;;;;;;;7.50;4.93;;;4.70;99.90;;;;;;5035537;28;20549;-77
2022/04/12 06:35:03;;;;;;;7.23;4.67;;;4.90;99.90;;;;;;5053703;28;20208;-77
2022/04/12 06:37:29;;;;;;;8.23;4.90;;;4.90;99.90;;;;;;5019448;28;20178;-77
2022/04/12 06:39:56;;;;;;;5.87;4.80;;;5.00;99.90;;;;;;5019464;28;20265;-77
2022/04/12 06:42:22;;;;;;;8.90;6.40;;;5.10;99.90;;;;;;5018955;28;20527;-77
2022/04/12 06:44:48;;;;;;;7.63;4.63;;;5.20;99.90;;;;;;5019421;28;20207;-77
2022/04/12 06:47:17;;;;;;;7.30;5.47;;;5.20;99.90;;;;;;5002916;28;20192;-77
2022/04/12 06:49:47;;;;;;;8.87;4.77;;;5.20;99.90;;;;;;5018835;28;20170;-77
2022/04/12 06:52:14;;;;;;;5.53;4.43;;;5.20;99.90;;;;;;5002490;28;20239;-77
2022/04/12 06:54:41;;;;;;;7.27;4.90;;;5.30;99.90;;;;;;5019298;28;20188;-77
2022/04/12 06:57:07;;;;;;;5.63;4.57;;;5.40;99.90;;;;;;5019156;28;20200;-77
2022/04/12 06:59:33;;;;;;;6.60;5.17;;;5.50;99.90;;;;;;5053214;28;20169;-77
2022/04/12 07:01:59;;;;;;;6.47;4.87;;;5.60;99.90;;;;;;5018618;28;20574;-77
2022/04/12 07:04:25;;;;;;;5.67;4.30;;;5.70;99.90;;;;;;5018764;28;20197;-81
2022/04/12 07:06:50;;;;;;;5.50;4.57;;;5.80;99.90;;;;;;5002510;28;20180;-77
2022/04/12 07:09:20;;;;;;;7.17;4.67;;;6.00;99.90;;;;;;5035576;28;20680;-77
2022/04/12 07:11:50;;;;;;;5.97;4.93;;;6.00;99.90;;;;;;5035702;28;20671;-76
2022/04/12 07:14:15;;;;;;;6.73;5.20;;;6.10;99.90;;;;;;5035106;28;20632;-77
2022/04/12 07:16:41;;;;;;;6.17;4.53;;;6.30;99.90;;;;;;5035163;28;20174;-77
2022/04/12 07:19:07;;;;;;;7.13;4.87;;;6.40;99.90;;;;;;5035009;28;20181;-77
2022/04/12 07:21:33;;;;;;;5.10;4.47;;;6.60;99.90;;;;;;5034983;28;20227;-77
2022/04/12 07:23:59;;;;;;;5.77;4.70;;;6.80;99.90;;;;;;5034786;28;20182;-77
2022/04/12 07:26:28;;;;;;;7.60;5.03;;;7.00;99.90;;;;;;5052677;28;20253;-77
2022/04/12 07:28:53;;;;;;;5.57;4.73;;;7.20;99.90;;;;;;5034090;28;20180;-77
2022/04/12 07:31:19;;;;;;;6.33;4.83;;;7.40;99.90;;;;;;5035042;28;20216;-77
2022/04/12 07:33:44;;;;;;;5.93;4.60;;;7.50;99.90;;;;;;5001661;28;20172;-77
2022/04/12 07:36:10;;;;;;;6.43;5.10;;;7.80;99.90;;;;;;5002400;28;20179;-77
2022/04/12 07:38:36;;;;;;;6.70;4.70;;;8.00;99.90;;;;;;5034773;28;20253;-77
2022/04/12 07:41:02;;;;;;;6.37;4.80;;;8.20;99.90;;;;;;5034748;28;20206;-77
2022/04/12 07:43:27;;;;;;;7.67;5.03;;;8.40;99.90;;;;;;5034511;28;20176;-77
2022/04/12 07:45:53;;;;;;;7.47;5.00;;;8.60;99.90;;;;;;5001783;28;20209;-76
2022/04/12 07:48:18;;;;;;;6.20;4.80;;;8.80;99.90;;;;;;5018110;28;21263;-77
2022/04/12 07:50:44;;;;;;;6.60;4.70;;;9.00;99.90;;;;;;5001625;28;20190;-82
2022/04/12 07:53:10;;;;;;;6.40;4.90;;;9.20;99.90;;;;;;5001373;28;20541;-77
2022/04/12 07:55:35;;;;;;;6.93;5.07;;;9.30;99.90;;;;;;5017957;28;20178;-77
2022/04/12 07:58:01;;;;;;;5.93;4.90;;;9.50;99.90;;;;;;5034564;28;20181;-77
2022/04/12 08:00:27;;;;;;;6.43;4.63;;;9.60;99.90;;;;;;5001619;28;20199;-77
2022/04/12 08:02:53;;;;;;;10.33;7.60;;;9.70;99.90;;;;;;5034155;28;20182;-77
2022/04/12 08:05:19;;;;;;;5.17;2.90;;;9.80;99.90;;;;;;5018076;28;20262;-77
2022/04/12 08:07:47;;;;;;;4.77;3.20;;;10.40;99.90;;;;;;5017943;28;20180;-77
2022/04/12 08:10:20;;;;;;;4.20;3.00;;;11.10;99.90;;;;;;5034654;28;20530;-76
2022/04/12 08:12:47;;;;;;;3.60;2.90;;;11.50;99.90;;;;;;5034467;28;20180;-77
2022/04/12 08:15:15;;;;;;;4.13;3.20;;;11.90;99.90;;;;;;5034219;28;20535;-76
2022/04/12 08:17:41;;;;;;;6.77;3.47;;;12.20;99.90;;;;;;5001631;28;20180;-77
2022/04/12 08:20:13;;;;;;;4.10;3.30;;;12.40;99.90;;;;;;5034148;28;20564;-76
2022/04/12 08:22:40;;;;;;;6.53;3.43;;;12.50;99.90;;;;;;5018423;28;20284;-77
2022/04/12 08:25:06;;;;;;;5.63;3.27;;;12.70;99.90;;;;;;5051803;28;20227;-77
2022/04/12 08:27:32;;;;;;;5.63;3.63;;;12.80;99.90;;;;;;5051808;28;20169;-77
2022/04/12 08:29:58;;;;;;;5.27;3.70;;;13.00;99.90;;;;;;5034016;28;20181;-77
2022/04/12 08:32:23;;;;;;;4.93;3.60;;;13.00;99.90;;;;;;5033820;28;20282;-77
2022/04/12 08:34:49;;;;;;;4.17;3.47;;;13.00;99.90;;;;;;5017602;28;20182;-77
2022/04/12 08:37:15;;;;;;;5.07;3.40;;;13.00;99.90;;;;;;5017654;28;20205;-76
2022/04/12 08:39:40;;;;;;;5.37;3.40;;;13.00;99.90;;;;;;5036182;28;20188;-76
2022/04/12 08:42:06;;;;;;;6.60;3.67;;;13.20;99.90;;;;;;5037906;28;20270;-77
2022/04/12 08:44:34;;;;;;;4.70;3.50;;;13.30;99.50;;;;;;5038555;28;20209;-79
2022/04/12 08:47:07;;;;;;;4.03;3.00;;;13.40;99.10;;;;;;5022639;28;20181;-76
2022/04/12 08:49:34;;;;;;;10.47;3.73;;;13.60;98.00;;;;;;5038428;28;20660;-76
2022/04/12 08:52:00;;;;;;;4.40;3.60;;;13.80;97.40;;;;;;5037961;28;20200;-76
2022/04/12 08:54:27;;;;;;;5.47;3.60;;;14.00;96.50;;;;;;5037920;28;20180;-76
2022/04/12 08:56:53;;;;;;;4.97;3.03;;;14.10;95.10;;;;;;5021642;28;20675;-77
2022/04/12 08:59:19;;;;;;;6.13;3.40;;;14.30;97.20;;;;;;5037681;28;20192;-77
2022/04/12 09:01:46;;;;;;;4.13;3.10;;;14.50;99.50;;;;;;5004991;28;20208;-77
2022/04/12 09:04:12;;;;;;;4.87;3.50;;;14.80;98.90;;;;;;5037823;28;20181;-77
2022/04/12 09:06:52;;;;;;;5.10;3.80;;;15.00;97.70;;;;;;5021361;28;20257;-76
2022/04/12 09:09:20;;;;;;;3.80;2.97;;;15.00;94.20;;;;;;5037779;28;20170;-76
2022/04/12 09:12:02;;;;;;;4.70;3.07;;;15.00;92.50;;;;;;5020925;28;20198;-76
2022/04/12 09:14:36;;;;;;;4.97;3.30;;;15.10;93.30;;;;;;5055336;28;20185;-76
2022/04/12 09:17:02;;;;;;;4.60;3.47;;;15.30;94.30;;;;;;5055429;28;20549;-76
2022/04/12 09:19:45;;;;;;;5.60;3.13;;;15.40;93.70;;;;;;5020983;28;20244;-78
2022/04/12 09:22:13;;;;;;;6.00;3.20;;;15.50;96.40;;;;;;5022288;28;20178;-77
2022/04/12 09:24:52;;;;;;;4.20;3.20;;;15.60;96.10;;;;;;5020839;28;20202;-76
2022/04/12 09:27:22;;;;;;;5.00;3.40;;;15.80;95.40;;;;;;5037424;28;20181;-76
2022/04/12 09:29:53;;;;;;;4.07;3.40;;;16.00;94.60;;;;;;5037359;28;20261;-77
2022/04/12 09:32:21;;;;;;;4.57;2.90;;;16.00;88.50;;;;;;5036807;28;20166;-77
2022/04/12 09:34:46;;;;;;;4.03;2.77;;;16.00;86.60;;;;;;5054809;28;20181;-77
2022/04/12 09:37:32;;;;;;;4.60;3.70;;;16.30;89.40;;;;;;5037188;28;20178;-77
2022/04/12 09:40:01;;;;;;;4.00;3.00;;;16.20;79.10;;;;;;5037075;28;20192;-77
2022/04/12 09:42:54;;;;;;;4.70;3.10;;;16.10;80.80;;;;;;5036692;28;20208;-76
2022/04/12 09:45:30;;;;;;;5.53;2.97;;;15.80;79.10;;;;;;5037029;28;20259;-76
2022/04/12 09:48:04;;;;;;;4.47;3.07;;;15.70;76.80;;;;;;5021073;28;20196;-77
2022/04/12 09:50:31;;;;;;;4.07;2.80;;;15.80;79.60;;;;;;5054239;28;20276;-77
2022/04/12 09:53:02;;;;;;;3.23;2.83;;;16.00;80.50;;;;;;5004372;28;20243;-77
2022/04/12 09:55:49;;;;;;;4.83;2.83;;;16.10;75.20;;;;;;5038098;28;20189;-77
2022/04/12 09:58:17;;;;;;;5.27;3.10;;;16.20;76.40;;;;;;5021119;28;20170;-77
2022/04/12 10:00:47;;;;;;;4.17;2.50;;;16.30;79.50;;;;;;5037767;28;20218;-78
2022/04/12 10:03:15;;;;;;;3.93;2.90;;;16.40;77.70;;;;;;5037553;28;20162;-77
2022/04/12 10:05:42;;;;;;;3.60;2.40;;;16.50;76.90;;;;;;5005110;28;20189;-79
2022/04/12 10:08:14;;;;;;;4.53;2.47;;;16.90;79.00;;;;;;5037946;28;20177;-78
2022/04/12 10:10:43;;;;;;;3.30;2.40;;;17.00;73.20;;;;;;5006067;28;20209;-77
2022/04/12 10:13:13;;;;;;;3.97;3.13;;;17.10;72.30;;;;;;5020495;28;20224;-76
2022/04/12 10:15:39;;;;;;;4.13;3.00;;;17.20;73.50;;;;;;5020809;28;20201;-76
2022/04/12 10:18:05;;;;;;;3.03;2.40;;;17.20;69.70;;;;;;5037029;28;20170;-76
2022/04/12 10:20:31;;;;;;;2.73;2.37;;;17.10;71.30;;;;;;5036350;28;20201;-76
2022/04/12 10:22:58;;;;;;;3.20;2.50;;;17.30;71.50;;;;;;5036400;28;20173;-76
2022/04/12 10:25:24;;;;;;;3.10;2.50;;;17.50;71.80;;;;;;5036598;28;20173;-76
2022/04/12 10:27:56;;;;;;;2.73;2.30;;;17.50;71.30;;;;;;5036694;28;20170;-76
2022/04/12 10:30:26;;;;;;;2.83;2.40;;;17.60;67.40;;;;;;5021006;28;20208;-76
2022/04/12 10:33:16;;;;;;;2.87;2.20;;;17.40;67.30;;;;;;5020333;28;20185;-76
2022/04/12 10:35:44;;;;;;;3.57;2.17;;;17.40;71.10;;;;;;5036337;28;20202;-76
2022/04/12 10:38:19;;;;;;;3.43;2.13;;;17.30;67.90;;;;;;5036394;28;20177;-76
2022/04/12 10:40:47;;;;;;;3.53;2.30;;;17.30;68.60;;;;;;5054126;28;20276;-76
2022/04/12 10:43:25;;;;;;;3.87;2.43;;;17.50;69.90;;;;;;5019896;28;20166;-76
2022/04/12 10:45:51;;;;;;;3.20;2.00;;;17.60;73.00;;;;;;5036475;28;20227;-77
2022/04/12 10:48:26;;;;;;;2.90;2.10;;;18.00;67.70;;;;;;5036425;28;20515;-77
2022/04/12 10:50:56;;;;;;;3.67;2.40;;;18.20;66.30;;;;;;5036067;28;20204;-77
2022/04/12 10:53:40;;;;;;;2.13;1.90;;;18.30;69.80;;;;;;5069669;22;20294;-75
2022/04/12 10:56:08;;;;;;;2.70;2.13;;;18.40;65.50;;;;;;5053533;28;20204;-75
2022/04/12 10:58:34;;;;;;;3.07;2.10;;;18.40;66.30;;;;;;5020870;28;20252;-75
2022/04/12 11:01:01;;;;;;;2.23;2.00;;;18.70;67.70;;;;;;5053357;28;20193;-75
2022/04/12 11:03:45;;;;;;;2.93;2.43;;;18.90;67.00;;;;;;5035365;28;20738;-75
2022/04/12 11:06:21;;;;;;;3.37;2.30;;;19.10;65.90;;;;;;5035774;28;20173;-75
2022/04/12 11:08:49;;;;;;;4.00;2.00;;;19.10;64.20;;;;;;5035660;28;20175;-75
2022/04/12 11:11:27;;;;;;;3.07;1.73;;;19.20;64.90;;;;;;5036312;28;20185;-75
2022/04/12 11:13:54;;;;;;;2.83;2.00;;;19.00;61.40;;;;;;5035437;28;20193;-75
2022/04/12 11:16:27;;;;;;;2.07;1.73;;;19.20;65.70;;;;;;5035842;28;20198;-74
2022/04/12 11:19:01;;;;;;;2.40;1.90;;;19.40;64.20;;;;;;5035968;28;20223;-75
2022/04/12 11:21:56;;;;;;;2.07;1.70;;;19.40;62.50;;;;;;5019794;28;20173;-75
2022/04/12 11:24:23;;;;;;;2.73;1.87;;;19.30;62.40;;;;;;5052232;28;20166;-74
2022/04/12 11:27:02;;;;;;;4.10;2.20;;;19.20;63.90;;;;;;5019067;28;20264;-75
2022/04/12 11:29:28;;;;;;;2.20;1.77;;;19.10;61.90;;;;;;5053502;28;20224;-75
2022/04/12 11:31:56;;;;;;;3.00;1.73;;;19.10;63.20;;;;;;5035377;28;20181;-75
2022/04/12 11:34:23;;;;;;;2.40;1.80;;;19.20;62.40;;;;;;5018797;28;20205;-75
2022/04/12 11:36:51;;;;;;;2.30;1.80;;;19.40;64.40;;;;;;5035470;28;20174;-75
2022/04/12 11:39:25;;;;;;;2.50;2.07;;;19.70;64.40;;;;;;5018913;28;20690;-75
2022/04/12 11:42:06;;;;;;;2.97;2.00;;;20.10;65.30;;;;;;5035916;28;20568;-75
2022/04/12 11:44:32;;;;;;;4.17;2.20;;;20.40;60.10;;;;;;5053042;28;20601;-75
2022/04/12 11:47:01;;;;;;;3.00;2.20;;;20.60;60.60;;;;;;5018908;28;20178;-75
2022/04/12 11:49:40;;;;;;;2.50;1.98;;;20.50;59.30;;;;;;5051880;28;20174;-75
2022/04/12 11:52:09;;;;;;;3.60;1.90;;;20.70;61.70;;;;;;5018693;28;20258;-75
2022/04/12 11:54:39;;;;;;;2.25;1.88;;;21.00;58.80;;;;;;5018396;28;20280;-75
2022/04/12 11:57:05;;;;;;;3.22;1.98;;;20.80;59.40;;;;;;5035108;28;20602;-75
2022/04/12 11:59:35;;;;;;;2.80;2.10;;;21.10;58.20;;;;;;5035218;28;20173;-75
2022/04/12 12:02:03;;;;;;;2.65;2.13;;;21.20;57.40;;;;;;5051244;28;20168;-75
2022/04/12 12:04:34;;;;;;;2.50;2.10;;;21.00;57.90;;;;;;5035188;28;20276;-75
2022/04/12 12:07:05;;;;;;;4.90;2.45;;;21.00;57.60;;;;;;5035160;28;20177;-75
2022/04/12 12:09:32;;;;;;;4.20;2.20;;;20.70;59.40;;;;;;5035459;28;20195;-75
2022/04/12 12:11:59;;;;;;;3.25;2.22;;;20.90;60.00;;;;;;5034738;28;20194;-75
2022/04/12 12:14:27;;;;;;;4.63;2.47;;;21.20;60.80;;;;;;5034557;28;20174;-75
2022/04/12 12:17:08;;;;;;;3.65;2.88;;;21.40;58.80;;;;;;5018718;28;20191;-75
2022/04/12 12:19:38;;;;;;;4.43;2.80;;;21.40;57.80;;;;;;5013945;28;20547;-74
2022/04/12 12:22:08;;;;;;;4.30;2.50;;;21.50;57.50;;;;;;5014577;28;20240;-75
2022/04/12 12:24:37;;;;;;;4.10;2.83;;;21.50;58.00;;;;;;5015068;28;20241;-75
2022/04/12 12:27:05;;;;;;;3.53;2.47;;;21.70;57.60;;;;;;4998878;28;20274;-75
2022/04/12 12:29:36;;;;;;;2.88;2.58;;;21.80;58.80;;;;;;4998404;28;20182;-75
2022/04/12 12:32:02;;;;;;;3.03;2.40;;;21.90;58.60;;;;;;4998253;28;20166;-75
2022/04/12 12:34:30;;;;;;;2.97;2.22;;;21.70;58.00;;;;;;4998433;28;20209;-75
2022/04/12 12:36:56;;;;;;;2.58;2.25;;;21.50;58.70;;;;;;5014983;28;20217;-76
2022/04/12 12:39:27;;;;;;;2.50;2.10;;;21.80;57.10;;;;;;5014693;28;20253;-75
2022/04/12 12:41:57;;;;;;;6.55;2.22;;;21.80;56.60;;;;;;4998230;28;20166;-75
2022/04/12 12:44:24;;;;;;;4.07;2.60;;;21.80;58.20;;;;;;5014871;28;20171;-75
2022/04/12 12:46:56;;;;;;;3.00;2.53;;;21.70;56.80;;;;;;5014935;28;20170;-75
2022/04/12 12:49:23;;;;;;;2.85;2.22;;;21.20;59.70;;;;;;5014458;28;20162;-75
2022/04/12 12:51:49;;;;;;;2.55;2.08;;;21.00;59.00;;;;;;4998148;28;20202;-75
2022/04/12 12:54:17;;;;;;;2.35;2.05;;;20.80;58.30;;;;;;5014525;28;20234;-75
2022/04/12 12:56:46;;;;;;;4.05;2.50;;;20.60;59.50;;;;;;5014636;28;20169;-76
2022/04/12 12:59:13;;;;;;;2.30;2.08;;;20.60;61.00;;;;;;5014927;28;20177;-81
2022/04/12 13:01:44;;;;;;;3.13;2.10;;;20.60;61.50;;;;;;4998686;28;20182;-75
2022/04/12 13:04:31;;;;;;;3.28;1.90;;;20.70;62.00;;;;;;4998168;28;20198;-75
2022/04/12 13:07:11;;;;;;;2.67;2.28;;;20.70;59.50;;;;;;5014825;28;20254;-75
2022/04/12 13:09:45;;;;;;;2.95;2.40;;;20.70;61.10;;;;;;5032180;28;20159;-75
2022/04/12 13:12:12;;;;;;;2.88;2.08;;;20.70;59.30;;;;;;4997889;28;20262;-75
2022/04/12 13:14:38;;;;;;;2.80;1.70;;;20.90;59.40;;;;;;5014438;28;20198;-75
2022/04/12 13:17:05;;;;;;;2.40;1.70;;;21.60;60.80;;;;;;4998489;28;20167;-75
2022/04/12 13:19:32;;;;;;;4.03;2.03;;;22.00;57.80;;;;;;5014296;28;20178;-75
2022/04/12 13:21:59;;;;;;;2.33;1.98;;;22.40;57.90;;;;;;5014330;28;20178;-75
2022/04/12 13:24:27;;;;;;;2.53;2.00;;;22.60;56.00;;;;;;4998127;28;20197;-75
2022/04/12 13:26:54;;;;;;;2.55;1.90;;;22.60;55.50;;;;;;5000074;28;20227;-75
2022/04/12 13:29:20;;;;;;;3.95;2.10;;;22.60;56.00;;;;;;5001947;28;20280;-75
2022/04/12 13:31:46;;;;;;;3.55;2.13;;;23.20;57.80;;;;;;5017763;28;20181;-75
2022/04/12 13:34:13;;;;;;;3.00;2.00;;;23.20;55.50;;;;;;5017795;28;20194;-75
2022/04/12 13:36:38;;;;;;;4.28;2.17;;;22.90;55.30;;;;;;5001909;28;20251;-76
2022/04/12 13:39:04;;;;;;;4.20;2.30;;;23.10;57.90;;;;;;5017999;28;20174;-75
2022/04/12 13:41:31;;;;;;;3.97;2.00;;;23.50;58.10;;;;;;5017859;28;20257;-76
2022/04/12 13:43:57;;;;;;;3.92;1.98;;;23.50;58.50;;;;;;5017805;28;20205;-75
2022/04/12 13:46:22;;;;;;;2.38;1.88;;;23.40;57.00;;;;;;5001207;28;20174;-75
2022/04/12 13:48:49;;;;;;;2.60;1.80;;;23.10;58.00;;;;;;5001119;28;20273;-75
2022/04/12 13:51:14;;;;;;;2.10;1.90;;;22.70;59.00;;;;;;5017947;28;20636;-75
2022/04/12 13:53:40;;;;;;;3.42;2.38;;;22.90;58.30;;;;;;5000521;28;20210;-75
2022/04/12 13:56:05;;;;;;;2.53;2.10;;;22.90;57.50;;;;;;5000995;28;20198;-75
2022/04/12 13:58:31;;;;;;;2.50;2.03;;;22.90;57.80;;;;;;5001239;28;20265;-74
2022/04/12 14:00:57;;;;;;;2.65;1.70;;;23.00;59.80;;;;;;5000910;28;20181;-75
2022/04/12 14:03:23;;;;;;;2.55;2.17;;;23.00;58.00;;;;;;5017307;28;20201;-74
2022/04/12 14:05:50;;;;;;;3.30;2.40;;;22.90;56.20;;;;;;5017197;28;20649;-74
2022/04/12 14:08:16;;;;;;;2.28;2.08;;;22.90;57.30;;;;;;5000840;28;20190;-75
2022/04/12 14:10:44;;;;;;;2.00;1.70;;;23.00;58.10;;;;;;5000653;28;20178;-75
2022/04/12 14:13:10;;;;;;;2.00;1.80;;;23.10;56.90;;;;;;5023924;28;20255;-76
2022/04/12 14:15:36;;;;;;;4.82;2.00;;;23.20;56.70;;;;;;5036598;28;20642;-75
2022/04/12 14:18:01;;;;;;;2.10;1.55;;;23.40;56.60;;;;;;5036632;28;20201;-75
2022/04/12 14:20:27;;;;;;;2.92;1.63;;;23.50;55.70;;;;;;5020491;28;20169;-75
2022/04/12 14:22:54;;;;;;;2.20;1.80;;;23.30;57.00;;;;;;5020008;28;20196;-75
2022/04/12 14:25:21;;;;;;;4.07;1.83;;;22.90;56.10;;;;;;5054337;28;20189;-75
2022/04/12 14:27:47;;;;;;;1.90;1.70;;;22.80;55.30;;;;;;5020188;28;20209;-75
2022/04/12 14:30:13;;;;;;;1.63;1.52;;;22.80;55.40;;;;;;5036855;28;20176;-75
2022/04/12 14:32:38;;;;;;;3.35;1.70;;;22.60;58.30;;;;;;5036221;28;20284;-75
2022/04/12 14:35:05;;;;;;;1.60;1.40;;;22.70;55.40;;;;;;5036368;28;20256;-75
2022/04/12 14:37:31;;;;;;;2.50;1.70;;;22.70;55.90;;;;;;5036050;28;20774;-75
2022/04/12 14:39:57;;;;;;;1.65;1.52;;;22.60;55.10;;;;;;5019883;28;20264;-75
2022/04/12 14:42:23;;;;;;;2.63;1.73;;;22.60;55.20;;;;;;5053881;28;20277;-75
2022/04/12 14:44:49;;;;;;;2.13;1.55;;;22.50;56.20;;;;;;5036372;28;20296;-75
2022/04/12 14:47:14;;;;;;;2.30;1.80;;;22.40;56.90;;;;;;5036415;28;20177;-75
2022/04/12 14:49:40;;;;;;;2.03;1.70;;;22.40;56.40;;;;;;5036203;28;20230;-75
2022/04/12 14:52:06;;;;;;;2.20;1.80;;;22.40;56.80;;;;;;5019147;28;20224;-75
2022/04/12 14:54:32;;;;;;;2.65;1.40;;;22.40;56.60;;;;;;4999778;28;20178;-75
2022/04/12 14:56:57;;;;;;;2.53;1.80;;;22.20;56.40;;;;;;5043326;28;20175;-75
2022/04/12 14:59:23;;;;;;;3.15;1.55;;;21.70;54.30;;;;;;5016146;28;20174;-75
2022/04/12 15:01:49;;;;;;;2.53;1.58;;;21.40;54.50;;;;;;5032467;28;20280;-75
2022/04/12 15:04:15;;;;;;;2.22;1.80;;;21.50;56.60;;;;;;5017227;28;20198;-74
2022/04/12 15:06:41;;;;;;;1.73;1.38;;;21.40;57.40;;;;;;5035835;28;20245;-74
2022/04/12 15:09:06;;;;;;;2.50;1.90;;;21.40;57.90;;;;;;5019515;28;20273;-76
2022/04/12 15:11:32;;;;;;;3.08;1.60;;;21.30;56.40;;;;;;5044686;28;20170;-74
2022/04/12 15:13:59;;;;;;;2.00;1.30;;;21.30;57.90;;;;;;5033844;28;20289;-75
2022/04/12 15:16:25;;;;;;;1.60;1.50;;;21.20;57.10;;;;;;5035539;28;20180;-75
2022/04/12 15:18:51;;;;;;;1.90;1.70;;;21.20;58.10;;;;;;5018962;28;20243;-75
2022/04/12 15:21:17;;;;;;;2.17;1.40;;;21.20;58.40;;;;;;5035672;28;20529;-75
2022/04/12 15:23:43;;;;;;;3.08;1.52;;;21.20;58.70;;;;;;5002373;28;20198;-75
2022/04/12 15:26:08;;;;;;;1.90;1.30;;;21.10;58.30;;;;;;5033380;28;20217;-75
2022/04/12 15:28:34;;;;;;;1.70;1.30;;;21.10;56.90;;;;;;5006333;28;20165;-75
2022/04/12 15:31:04;;;;;;;1.55;1.33;;;21.00;57.30;;;;;;4999188;28;20253;-75
2022/04/12 15:33:29;;;;;;;1.88;1.45;;;20.90;58.60;;;;;;4999297;28;20204;-75
2022/04/12 15:35:56;;;;;;;1.73;1.35;;;20.80;56.40;;;;;;5015407;28;20178;-75
2022/04/12 15:38:21;;;;;;;2.55;1.20;;;20.50;55.30;;;;;;5021917;28;20268;-75
2022/04/12 15:40:47;;;;;;;1.20;1.10;;;20.50;58.50;;;;;;5018951;28;20273;-75
2022/04/12 15:43:13;;;;;;;2.25;1.20;;;20.50;54.80;;;;;;5013849;28;20335;-75
2022/04/12 15:45:39;;;;;;;2.05;1.50;;;20.40;56.50;;;;;;5012338;28;20202;-75
2022/04/12 15:48:04;;;;;;;1.88;1.40;;;20.30;54.90;;;;;;5020959;28;20231;-77
2022/04/12 15:50:30;;;;;;;1.75;1.45;;;20.20;57.10;;;;;;5034753;28;20174;-77
2022/04/12 15:52:56;;;;;;;2.63;1.30;;;20.10;55.90;;;;;;5032120;28;20220;-77
2022/04/12 15:55:22;;;;;;;3.50;1.45;;;20.10;60.00;;;;;;5044958;28;20663;-77
2022/04/12 15:57:49;;;;;;;1.52;1.30;;;20.10;57.70;;;;;;5018322;28;20188;-77
2022/04/12 16:00:15;;;;;;;1.70;1.30;;;20.10;58.50;;;;;;5009735;28;20193;-77
2022/04/12 16:02:42;;;;;;;1.65;1.35;;;19.90;58.20;;;;;;5031303;28;20198;-77
2022/04/12 16:05:08;;;;;;;1.65;1.33;;;19.80;56.90;;;;;;5031678;28;20202;-77
2022/04/12 16:07:34;;;;;;;1.98;1.40;;;19.80;59.80;;;;;;5020180;28;20659;-77
2022/04/12 16:10:01;;;;;;;1.80;1.27;;;19.70;59.70;;;;;;5011437;28;20206;-77
2022/04/12 16:12:26;;;;;;;3.63;1.40;;;19.70;60.50;;;;;;5034060;28;20201;-77
2022/04/12 16:14:52;;;;;;;1.95;1.17;;;19.60;60.10;;;;;;5001033;28;20269;-77
2022/04/12 16:17:20;;;;;;;1.92;1.27;;;19.60;59.80;;;;;;5002173;28;20185;-77
2022/04/12 16:19:50;;;;;;;1.60;1.30;;;19.50;60.90;;;;;;5033612;28;20220;-76
2022/04/12 16:22:16;;;;;;;2.20;1.50;;;19.50;62.10;;;;;;5052298;28;20213;-77
2022/04/12 16:24:43;;;;;;;2.38;1.13;;;19.60;63.50;;;;;;5019053;28;20190;-76
2022/04/12 16:27:09;;;;;;;1.90;1.33;;;19.50;58.20;;;;;;5033372;28;20169;-79
2022/04/12 16:29:34;;;;;;;3.67;1.40;;;19.50;60.20;;;;;;5018778;28;20658;-77
2022/04/12 16:32:00;;;;;;;1.58;1.20;;;19.40;60.70;;;;;;5018214;28;20181;-81
2022/04/12 16:34:26;;;;;;;1.77;1.40;;;19.40;60.20;;;;;;5018889;28;20185;-77
2022/04/12 16:36:52;;;;;;;2.85;1.38;;;19.40;59.30;;;;;;5043068;28;20226;-77
2022/04/12 16:39:18;;;;;;;3.47;1.40;;;19.40;59.60;;;;;;5018002;28;20178;-77
2022/04/12 16:41:44;;;;;;;2.25;1.23;;;19.30;59.90;;;;;;5017825;28;20573;-77
2022/04/12 16:44:09;;;;;;;1.98;1.50;;;19.40;61.90;;;;;;5033309;28;20288;-77
2022/04/12 16:46:37;;;;;;;1.40;1.20;;;19.40;62.90;;;;;;5001927;28;20199;-77
2022/04/12 16:49:04;;;;;;;1.52;1.35;;;19.40;64.20;;;;;;5021100;28;20178;-77
2022/04/12 16:51:31;;;;;;;1.30;1.20;;;19.40;61.10;;;;;;5041622;28;20194;-77
2022/04/12 16:53:57;;;;;;;1.95;1.42;;;19.40;64.90;;;;;;5001895;28;20275;-77
2022/04/12 16:56:23;;;;;;;1.52;1.33;;;19.20;61.90;;;;;;5006630;28;20187;-79
2022/04/12 16:58:48;;;;;;;3.55;1.50;;;19.10;60.00;;;;;;5032571;28;20232;-77
2022/04/12 17:01:14;;;;;;;1.70;1.40;;;18.90;60.20;;;;;;5033619;28;20189;-77
2022/04/12 17:03:40;;;;;;;1.50;1.40;;;18.90;61.10;;;;;;5048617;28;20201;-77
2022/04/12 17:06:06;;;;;;;1.90;1.20;;;18.80;63.40;;;;;;5018110;28;20241;-77
2022/04/12 17:08:31;;;;;;;1.98;1.30;;;18.70;62.30;;;;;;5017942;28;20632;-76
2022/04/12 17:10:57;;;;;;;1.35;1.20;;;18.70;67.90;;;;;;5043405;28;20182;-77
2022/04/12 17:13:23;;;;;;;2.37;1.50;;;18.70;67.80;;;;;;5034498;28;20202;-76
2022/04/12 17:15:49;;;;;;;2.35;1.30;;;18.70;66.10;;;;;;5018067;28;20193;-77
2022/04/12 17:18:15;;;;;;;2.15;1.33;;;18.70;67.10;;;;;;5017971;28;20174;-77
2022/04/12 17:20:40;;;;;;;2.17;1.30;;;18.50;73.70;;;;;;5020400;28;20193;-77
2022/04/12 17:23:06;;;;;;;2.73;1.30;;;18.50;72.00;;;;;;5033830;28;20693;-77
2022/04/12 17:25:32;;;;;;;1.80;1.53;;;18.40;69.90;;;;;;5006209;28;20196;-77
2022/04/12 17:27:57;;;;;;;2.30;1.40;;;18.40;67.30;;;;;;5025658;28;20180;-77
2022/04/12 17:30:23;;;;;;;3.78;1.45;;;18.30;71.30;;;;;;5020678;28;20178;-77
2022/04/12 17:32:49;;;;;;;2.23;1.37;;;18.20;73.30;;;;;;5016620;28;20719;-77
2022/04/12 17:35:14;;;;;;;3.30;1.40;;;18.20;76.40;;;;;;5011891;28;20190;-77
2022/04/12 17:37:41;;;;;;;3.13;1.60;;;18.00;72.00;;;;;;5000823;28;20177;-77
2022/04/12 17:40:07;;;;;;;2.47;1.45;;;17.90;75.90;;;;;;5027415;28;20417;-77
2022/04/12 17:42:33;;;;;;;6.50;2.10;;;17.80;79.20;;;;;;5036395;28;20419;-77
2022/04/12 17:45:02;;;;;;;7.77;1.90;;;17.70;74.80;;;;;;5016419;28;20425;-77
2022/04/12 17:47:27;;;;;;;13.37;1.90;;;17.70;75.50;;;;;;5025331;28;20198;-77